Time;durP1;ratioP1;P1;durP2;ratioP2;P2;SDS_P1;SDS_P2;PMS_P1;PMS_P2;Temp;Humidity;BMP_temperature;BMP_pressure;BME280_temperature;BME280_humidity;BME280_pressure;Samples;Min_cycle;Max_cycle;Signal;HPM_P1;HPM_P2
2022/04/18 00:02:09;;;;;;;;;;;;;;;19.88;35.83;101390.31;5097318;28;19920;-79
2022/04/18 00:04:37;;;;;;;;;;;;;;;19.88;35.85;101394.84;5099116;28;19920;-79
2022/04/18 00:07:04;;;;;;;;;;;;;;;19.87;35.85;101391.31;5097944;28;19927;-79
2022/04/18 00:09:33;;;;;;;;;;;;;;;19.87;35.88;101388.63;5095769;28;19920;-79
2022/04/18 00:12:00;;;;;;;;;;;;;;;19.87;35.99;101382.41;5097668;28;19920;-79
2022/04/18 00:14:28;;;;;;;;;;;;;;;19.87;36.00;101380.56;5098627;28;19920;-79
2022/04/18 00:16:55;;;;;;;;;;;;;;;19.86;35.89;101364.56;5098702;28;19920;-79
2022/04/18 00:19:23;;;;;;;;;;;;;;;19.87;35.93;101367.13;5098918;28;19927;-79
2022/04/18 00:21:50;;;;;;;;;;;;;;;19.86;35.89;101380.69;5098177;28;19920;-79
2022/04/18 00:24:19;;;;;;;;;;;;;;;19.86;36.01;101367.25;5098471;28;19920;-79
2022/04/18 00:26:47;;;;;;;;;;;;;;;19.85;35.89;101377.16;5098318;28;19927;-80
2022/04/18 00:29:14;;;;;;;;;;;;;;;19.85;36.02;101362.84;5096822;28;19927;-80
2022/04/18 00:31:44;;;;;;;;;;;;;;;19.84;35.98;101362.00;5097124;28;19947;-80
2022/04/18 00:34:11;;;;;;;;;;;;;;;19.84;35.85;101364.69;5097303;28;19919;-79
2022/04/18 00:39:57;;;;;;;;;;;;;;;19.83;36.00;101364.81;5097678;28;19920;-79
2022/04/18 00:42:24;;;;;;;;;;;;;;;19.83;36.01;101364.81;5086481;28;19927;-78
2022/04/18 00:44:52;;;;;;;;;;;;;;;19.83;35.99;101364.81;5097602;28;19920;-79
2022/04/18 00:47:19;;;;;;;;;;;;;;;19.83;35.99;101359.44;5097193;28;19943;-79
2022/04/18 00:49:46;;;;;;;;;;;;;;;19.82;35.96;101358.59;5097026;28;19927;-79
2022/04/18 00:52:14;;;;;;;;;;;;;;;19.81;35.92;101354.19;5078267;28;20367;-79
2022/04/18 00:54:41;;;;;;;;;;;;;;;19.82;35.82;101357.72;5095314;28;19927;-79
2022/04/18 00:57:11;;;;;;;;;;;;;;;19.82;35.84;101365.78;5096386;28;19943;-79
2022/04/18 00:59:38;;;;;;;;;;;;;;;19.81;35.91;101356.00;5096663;28;19964;-79
2022/04/18 01:02:06;;;;;;;;;;;;;;;19.81;36.00;101369.44;5095191;28;19928;-78
2022/04/18 01:04:33;;;;;;;;;;;;;;;19.81;36.04;101369.44;5077777;28;19920;-78
2022/04/18 01:07:02;;;;;;;;;;;;;;;19.80;35.96;101359.66;5094319;28;19919;-78
2022/04/18 01:09:30;;;;;;;;;;;;;;;19.80;35.85;101360.53;5094808;28;19920;-80
2022/04/18 01:11:57;;;;;;;;;;;;;;;19.80;36.01;101355.16;5094241;28;19920;-78
2022/04/18 01:14:36;;;;;;;;;;;;;;;19.80;36.01;101356.97;5094469;28;19920;-77
2022/04/18 01:17:23;;;;;;;;;;;;;;;19.79;36.07;101357.97;5034344;28;19928;-77
2022/04/18 01:20:14;;;;;;;;;;;;;;;19.79;36.01;101357.97;5029197;28;19928;-77
2022/04/18 01:22:59;;;;;;;;;;;;;;;19.79;35.91;101349.91;5036021;28;20040;-77
2022/04/18 01:31:15;;;;;;;;;;;;;;;19.78;35.94;101340.16;5034830;28;19921;-77
2022/04/18 01:33:42;;;;;;;;;;;;;;;19.77;35.98;101344.66;5017202;28;19921;-80
2022/04/18 01:36:09;;;;;;;;;;;;;;;19.76;36.02;101341.09;5016729;28;19925;-78
2022/04/18 01:38:37;;;;;;;;;;;;;;;19.77;36.06;101344.66;5019911;28;19936;-78
2022/04/18 01:41:04;;;;;;;;;;;;;;;19.76;35.95;101348.31;5035939;28;19921;-78
2022/04/18 01:43:31;;;;;;;;;;;;;;;19.76;36.04;101337.56;5011990;28;19921;-77
2022/04/18 01:45:58;;;;;;;;;;;;;;;19.76;35.98;101345.63;5034293;28;20261;-77
2022/04/18 01:48:27;;;;;;;;;;;;;;;19.75;36.03;101334.03;5032884;28;19928;-77
2022/04/18 01:50:54;;;;;;;;;;;;;;;19.74;36.05;101323.41;5032956;28;19921;-77
2022/04/18 01:53:23;;;;;;;;;;;;;;;19.75;35.98;101328.66;5032882;28;19928;-77
2022/04/18 01:55:50;;;;;;;;;;;;;;;19.75;36.00;101325.13;5096392;28;19920;-77
2022/04/18 01:58:18;;;;;;;;;;;;;;;19.74;36.04;101323.41;5094691;28;19927;-77
2022/04/18 02:00:45;;;;;;;;;;;;;;;19.73;35.94;101322.56;5094847;28;19946;-77
2022/04/18 02:03:13;;;;;;;;;;;;;;;19.73;36.00;101322.56;5092939;28;19919;-77
2022/04/18 02:05:44;;;;;;;;;;;;;;;19.74;36.05;101323.41;5094290;28;19931;-77
2022/04/18 02:08:11;;;;;;;;;;;;;;;19.73;36.04;101322.56;5095341;28;19927;-78
2022/04/18 02:10:38;;;;;;;;;;;;;;;19.74;36.00;101326.09;5095142;28;19920;-78
2022/04/18 02:13:09;;;;;;;;;;;;;;;19.73;36.03;101321.72;5094979;28;19927;-78
2022/04/18 02:15:36;;;;;;;;;;;;;;;19.72;35.98;101320.84;5094851;28;19926;-77
2022/04/18 02:18:04;;;;;;;;;;;;;;;19.72;35.92;101315.47;5096549;28;19920;-77
2022/04/18 02:20:32;;;;;;;;;;;;;;;19.71;36.06;101307.53;5094609;28;19920;-77
2022/04/18 02:22:59;;;;;;;;;;;;;;;19.72;35.94;101309.25;5094477;28;19920;-78
2022/04/18 02:25:26;;;;;;;;;;;;;;;19.70;35.93;101305.84;5094412;28;19920;-78
2022/04/18 02:27:59;;;;;;;;;;;;;;;19.71;36.04;101299.47;5094807;28;19927;-78
2022/04/18 02:30:26;;;;;;;;;;;;;;;19.70;35.88;101293.25;5094707;28;20006;-78
2022/04/18 02:32:54;;;;;;;;;;;;;;;19.69;36.12;101296.94;5092739;28;19920;-78
2022/04/18 02:35:22;;;;;;;;;;;;;;;19.70;36.10;101295.09;5093278;28;19924;-78
2022/04/18 02:37:54;;;;;;;;;;;;;;;19.69;35.95;101291.56;5096883;28;19920;-77
2022/04/18 02:40:27;;;;;;;;;;;;;;;19.69;35.95;101283.50;5095262;28;19927;-77
2022/04/18 02:42:55;;;;;;;;;;;;;;;19.69;36.03;101288.03;5091536;28;19919;-77
2022/04/18 02:45:23;;;;;;;;;;;;;;;19.68;35.79;101284.44;5087839;28;19920;-77
2022/04/18 02:48:29;;;;;;;;;;;;;;;19.68;36.05;101286.28;5032081;28;19921;-77
2022/04/18 02:50:58;;;;;;;;;;;;;;;19.69;35.96;101279.97;5015640;28;19964;-79
2022/04/18 02:53:29;;;;;;;;;;;;;;;19.68;35.90;101284.44;5015527;28;19921;-78
2022/04/18 02:56:06;;;;;;;;;;;;;;;19.67;35.80;101280.06;5015475;28;19921;-78
2022/04/18 02:58:38;;;;;;;;;;;;;;;19.68;35.84;101275.53;5016837;28;19921;-78
2022/04/18 03:01:06;;;;;;;;;;;;;;;19.67;35.90;101268.47;5016714;28;19921;-79
2022/04/18 03:03:33;;;;;;;;;;;;;;;19.67;35.84;101263.09;5015186;28;19924;-79
2022/04/18 03:06:02;;;;;;;;;;;;;;;19.66;35.95;101262.25;5015220;28;20376;-77
2022/04/18 03:11:17;;;;;;;;;;;;;;;19.66;35.83;101256.88;5032758;28;19932;-77
2022/04/18 03:13:46;;;;;;;;;;;;;;;19.65;35.90;101252.50;5016470;28;20344;-77
2022/04/18 03:16:29;;;;;;;;;;;;;;;19.66;35.89;101256.03;5016558;28;19921;-77
2022/04/18 03:18:57;;;;;;;;;;;;;;;19.65;35.81;101254.31;5037717;28;19927;-77
2022/04/18 03:21:24;;;;;;;;;;;;;;;19.65;35.94;101248.94;5095461;28;19927;-77
2022/04/18 03:23:55;;;;;;;;;;;;;;;19.64;35.94;101250.75;5093524;28;19920;-77
2022/04/18 03:26:42;;;;;;;;;;;;;;;19.65;35.89;101255.16;5072830;28;19979;-77
2022/04/18 03:29:22;;;;;;;;;;;;;;;19.65;35.96;101249.81;5056160;28;19920;-78
2022/04/18 03:31:49;;;;;;;;;;;;;;;19.65;36.05;101243.56;5071418;28;19963;-78
2022/04/18 03:34:24;;;;;;;;;;;;;;;19.66;36.06;101247.97;5054303;28;20392;-79
2022/04/18 03:39:50;;;;;;;;;;;;;;;19.65;36.08;101243.56;5055318;28;20399;-79
2022/04/18 03:42:32;;;;;;;;;;;;;;;19.64;36.08;101245.38;5055569;28;20291;-79
2022/04/18 03:45:11;;;;;;;;;;;;;;;19.64;35.98;101234.63;5024933;28;19928;-78
2022/04/18 03:47:38;;;;;;;;;;;;;;;19.64;36.07;101239.16;5061119;28;19927;-78
2022/04/18 03:50:07;;;;;;;;;;;;;;;19.64;35.96;101244.53;5071783;28;20426;-78
2022/04/18 03:52:38;;;;;;;;;;;;;;;19.63;35.95;101232.94;5055364;28;19920;-77
2022/04/18 03:55:16;;;;;;;;;;;;;;;19.65;36.10;101240.91;5041188;28;20308;-77
2022/04/18 03:57:44;;;;;;;;;;;;;;;19.63;36.07;101241.00;5072893;28;20425;-78
2022/04/18 04:00:12;;;;;;;;;;;;;;;19.62;35.88;101236.63;5073214;28;19924;-78
2022/04/18 04:02:47;;;;;;;;;;;;;;;19.63;36.06;101237.47;5072538;28;19921;-78
2022/04/18 04:05:21;;;;;;;;;;;;;;;19.63;35.92;101229.41;5074557;28;19931;-78
2022/04/18 04:07:51;;;;;;;;;;;;;;;19.62;35.93;101238.44;5074522;28;19924;-79
2022/04/18 04:10:28;;;;;;;;;;;;;;;19.61;35.93;101236.72;5076171;28;19921;-78
2022/04/18 04:12:56;;;;;;;;;;;;;;;19.60;36.11;101233.16;5057691;28;19943;-78
2022/04/18 04:15:46;;;;;;;;;;;;;;;19.60;35.96;101243.88;5090639;28;19920;-78
2022/04/18 04:18:18;;;;;;;;;;;;;;;19.60;35.90;101241.19;5073516;28;20376;-80
2022/04/18 04:20:45;;;;;;;;;;;;;;;19.60;35.93;101245.72;5072963;28;19920;-79
2022/04/18 04:23:17;;;;;;;;;;;;;;;19.59;35.94;101250.25;5089448;28;20299;-78
2022/04/18 04:26:04;;;;;;;;;;;;;;;19.59;35.93;101250.25;5074671;28;20261;-79
2022/04/18 04:28:57;;;;;;;;;;;;;;;19.57;35.99;101244.16;5076526;28;19920;-78
2022/04/18 04:31:28;;;;;;;;;;;;;;;19.58;35.91;101243.19;5093294;28;20018;-78
2022/04/18 04:33:58;;;;;;;;;;;;;;;19.58;35.98;101240.50;5076927;28;19928;-78
2022/04/18 04:36:27;;;;;;;;;;;;;;;19.58;36.04;101245.84;5093168;28;20291;-78
2022/04/18 04:38:57;;;;;;;;;;;;;;;19.57;35.99;101249.53;5092161;28;19920;-78
2022/04/18 04:41:31;;;;;;;;;;;;;;;19.57;35.95;101246.84;5074880;28;19927;-78
2022/04/18 04:43:59;;;;;;;;;;;;;;;19.57;35.91;101245.97;5074998;28;20411;-78
2022/04/18 04:46:37;;;;;;;;;;;;;;;19.56;36.08;101250.47;5087479;28;19927;-78
2022/04/18 04:49:09;;;;;;;;;;;;;;;19.57;35.85;101249.53;5076525;28;19920;-78
2022/04/18 04:51:41;;;;;;;;;;;;;;;19.56;36.06;101261.22;5059275;28;19927;-78
2022/04/18 04:54:08;;;;;;;;;;;;;;;19.56;35.92;101263.06;5075165;28;19920;-78
2022/04/18 04:56:39;;;;;;;;;;;;;;;19.56;35.92;101255.00;5060272;28;19920;-78
2022/04/18 04:59:08;;;;;;;;;;;;;;;19.54;35.87;101256.97;5075821;28;19920;-78
2022/04/18 05:01:36;;;;;;;;;;;;;;;19.55;35.81;101264.91;5074285;28;19920;-78
2022/04/18 05:04:06;;;;;;;;;;;;;;;19.55;36.03;101267.59;5076519;28;20367;-78
2022/04/18 05:06:34;;;;;;;;;;;;;;;19.54;35.91;101262.34;5076017;28;19927;-79
2022/04/18 05:09:06;;;;;;;;;;;;;;;19.54;35.98;101256.97;5077668;28;19920;-78
2022/04/18 05:11:35;;;;;;;;;;;;;;;19.54;35.95;101259.66;5077869;28;19928;-78
2022/04/18 05:14:03;;;;;;;;;;;;;;;19.54;35.87;101256.97;5077446;28;19931;-78
2022/04/18 05:16:51;;;;;;;;;;;;;;;19.52;36.01;101259.75;5075642;28;19920;-79
2022/04/18 05:19:38;;;;;;;;;;;;;;;19.53;36.04;101269.56;5076242;28;19922;-79
2022/04/18 05:22:25;;;;;;;;;;;;;;;19.52;35.79;101255.25;5076607;28;19927;-78
2022/04/18 05:24:55;;;;;;;;;;;;;;;19.51;35.94;101264.28;5074578;28;19924;-78
2022/04/18 05:27:44;;;;;;;;;;;;;;;19.52;35.86;101259.75;5075980;28;19928;-78
2022/04/18 05:30:30;;;;;;;;;;;;;;;19.51;36.12;101264.28;5076291;28;19920;-78
2022/04/18 05:32:57;;;;;;;;;;;;;;;19.51;35.86;101258.06;5078096;28;19928;-78
2022/04/18 05:35:25;;;;;;;;;;;;;;;19.50;36.00;101257.22;5075995;28;20299;-79
2022/04/18 05:37:54;;;;;;;;;;;;;;;19.51;35.90;101258.06;5059727;28;20283;-78
2022/04/18 05:40:38;;;;;;;;;;;;;;;19.51;35.84;101263.44;5075400;28;19927;-78
2022/04/18 05:43:06;;;;;;;;;;;;;;;19.51;36.08;101258.06;5074375;28;19927;-78
2022/04/18 05:45:36;;;;;;;;;;;;;;;19.51;35.89;101252.69;5077259;28;20405;-78
2022/04/18 05:48:13;;;;;;;;;;;;;;;19.51;35.86;101250.00;5091425;28;20406;-78
2022/04/18 05:50:45;;;;;;;;;;;;;;;19.49;36.01;101255.50;5094957;28;19931;-77
2022/04/18 05:53:32;;;;;;;;;;;;;;;19.50;35.85;101248.31;5096517;28;20347;-77
2022/04/18 05:56:23;;;;;;;;;;;;;;;19.49;36.07;101243.94;5095289;28;19927;-78
2022/04/18 05:58:55;;;;;;;;;;;;;;;19.49;35.95;101249.28;5095167;28;19920;-79
2022/04/18 06:01:42;;;;;;;;;;;;;;;19.48;35.86;101243.03;5095248;28;19927;-78
2022/04/18 06:04:39;;;;;;;;;;;;;;;19.50;36.04;101242.94;5087167;28;19927;-78
2022/04/18 06:07:21;;;;;;;;;;;;;;;19.50;36.02;101248.31;5103278;28;19920;-78
2022/04/18 06:10:08;;;;;;;;;;;;;;;19.49;36.05;101250.16;5095457;28;20287;-78
2022/04/18 06:12:38;;;;;;;;;;;;;;;19.49;36.25;101247.47;5094339;28;19920;-78
2022/04/18 06:15:08;;;;;;;;;;;;;;;19.50;36.17;101248.31;5094994;28;19943;-78
2022/04/18 06:17:36;;;;;;;;;;;;;;;19.50;36.04;101245.63;5076966;28;19927;-78
2022/04/18 06:20:04;;;;;;;;;;;;;;;19.48;36.13;101253.78;5092872;28;19947;-78
2022/04/18 06:22:31;;;;;;;;;;;;;;;19.49;36.16;101251.97;5093614;28;19927;-78
2022/04/18 06:24:58;;;;;;;;;;;;;;;19.48;36.20;101250.25;5094925;28;19927;-78
2022/04/18 06:27:28;;;;;;;;;;;;;;;19.50;36.11;101256.38;5094628;28;19920;-78
2022/04/18 06:29:56;;;;;;;;;;;;;;;19.49;36.17;101249.28;5095129;28;19920;-81
2022/04/18 06:32:25;;;;;;;;;;;;;;;19.48;36.16;101251.09;5094731;28;19939;-79
2022/04/18 06:34:58;;;;;;;;;;;;;;;19.49;36.49;101249.28;5095390;28;19968;-78
2022/04/18 06:37:28;;;;;;;;;;;;;;;19.49;36.39;101255.50;5093231;28;19931;-78
2022/04/18 06:40:05;;;;;;;;;;;;;;;19.49;36.21;101254.66;5093588;28;19938;-78
2022/04/18 06:42:37;;;;;;;;;;;;;;;19.49;36.13;101251.97;5094680;28;19927;-78
2022/04/18 06:45:11;;;;;;;;;;;;;;;19.49;36.23;101251.97;5093400;28;19920;-78
2022/04/18 06:47:40;;;;;;;;;;;;;;;19.48;36.20;101247.56;5085459;28;19920;-77
2022/04/18 06:50:28;;;;;;;;;;;;;;;19.49;36.39;101244.78;5072700;28;20024;-77
2022/04/18 06:52:55;;;;;;;;;;;;;;;19.49;36.37;101250.16;5072923;28;20281;-77
2022/04/18 06:58:53;;;;;;;;;;;;;;;19.49;36.69;101246.59;5055291;28;20380;-78
2022/04/18 07:01:20;;;;;;;;;;;;;;;19.50;36.54;101242.94;5071277;28;19920;-78
2022/04/18 07:03:47;;;;;;;;;;;;;;;19.49;36.53;101239.41;5054603;28;19921;-79
2022/04/18 07:06:15;;;;;;;;;;;;;;;19.49;36.32;101234.03;5055543;28;19924;-80
2022/04/18 07:08:42;;;;;;;;;;;;;;;19.50;36.45;101229.50;5054966;28;19920;-79
2022/04/18 07:11:27;;;;;;;;;;;;;;;19.50;36.48;101230.38;5064432;28;19920;-81
2022/04/18 07:13:55;;;;;;;;;;;;;;;19.50;36.67;101229.50;5072166;28;20335;-81
2022/04/18 07:16:22;;;;;;;;;;;;;;;19.50;36.68;101227.69;5054984;28;20331;-81
2022/04/18 07:18:50;;;;;;;;;;;;;;;19.51;36.66;101232.06;5054761;28;19920;-80
2022/04/18 07:21:17;;;;;;;;;;;;;;;19.50;36.24;101225.00;5055033;28;19921;-80
2022/04/18 07:23:45;;;;;;;;;;;;;;;19.52;36.47;101227.53;5072059;28;19924;-78
2022/04/18 07:26:15;;;;;;;;;;;;;;;19.39;33.55;101227.69;5055280;28;19920;-80
2022/04/18 07:28:43;;;;;;;;;;;;;;;19.30;33.75;101227.56;5037054;28;20295;-80
2022/04/18 07:31:12;;;;;;;;;;;;;;;19.27;33.53;101220.59;5052778;28;19921;-80
2022/04/18 07:33:40;;;;;;;;;;;;;;;19.22;33.17;101225.50;5053765;28;19925;-79
2022/04/18 07:36:12;;;;;;;;;;;;;;;19.13;32.69;101221.72;5052573;28;19928;-79
2022/04/18 07:38:48;;;;;;;;;;;;;;;19.11;33.44;101218.28;5052541;28;19928;-79
2022/04/18 07:41:18;;;;;;;;;;;;;;;19.08;33.25;101215.84;5069739;28;20015;-77
2022/04/18 07:43:45;;;;;;;;;;;;;;;19.08;33.59;101217.66;5068247;28;19936;-76
2022/04/18 07:46:15;;;;;;;;;;;;;;;19.13;34.13;101210.13;5068202;28;19921;-77
2022/04/18 07:48:44;;;;;;;;;;;;;;;19.17;34.19;101212.44;5061403;28;20273;-78
2022/04/18 07:53:59;;;;;;;;;;;;;;;19.24;33.79;101219.03;5052256;28;19921;-77
2022/04/18 07:56:27;;;;;;;;;;;;;;;19.28;34.84;101216.94;5052020;28;19928;-78
2022/04/18 07:58:54;;;;;;;;;;;;;;;19.30;34.76;101217.69;5056442;28;19928;-78
2022/04/18 08:01:36;;;;;;;;;;;;;;;19.33;33.99;101221.97;5041495;28;19921;-77
2022/04/18 08:04:04;;;;;;;;;;;;;;;19.33;33.07;101214.75;5074738;28;20265;-76
2022/04/18 08:06:33;;;;;;;;;;;;;;;19.36;33.05;101219.00;5060490;28;19921;-79
2022/04/18 08:09:12;;;;;;;;;;;;;;;19.39;34.46;101219.63;5060722;28;19927;-81
2022/04/18 08:11:39;;;;;;;;;;;;;;;19.41;34.66;101212.31;5058988;28;19921;-82
2022/04/18 08:14:07;;;;;;;;;;;;;;;19.44;34.45;101220.09;5075725;28;19943;-82
2022/04/18 08:16:44;;;;;;;;;;;;;;;19.47;34.33;101213.63;5059909;28;19932;-79
2022/04/18 08:19:24;;;;;;;;;;;;;;;19.50;34.23;101203.50;5076049;28;19920;-79
2022/04/18 08:21:52;;;;;;;;;;;;;;;19.52;33.65;101206.06;5058753;28;19932;-77
2022/04/18 08:24:20;;;;;;;;;;;;;;;19.54;32.67;101208.63;5059522;28;19920;-78
2022/04/18 08:27:07;;;;;;;;;;;;;;;19.56;32.51;101201.28;5034101;28;19925;-76
2022/04/18 08:29:46;;;;;;;;;;;;;;;19.58;32.01;101199.34;5017110;28;19929;-76
2022/04/18 08:32:45;;;;;;;;;;;;;;;19.59;32.35;101201.91;5014650;28;19925;-76
2022/04/18 08:35:12;;;;;;;;;;;;;;;19.60;32.25;101203.59;5014678;28;19921;-77
2022/04/18 08:37:40;;;;;;;;;;;;;;;19.61;32.45;101193.75;5014238;28;19921;-77
2022/04/18 08:40:25;;;;;;;;;;;;;;;19.62;31.94;101196.31;5021236;28;20320;-76
2022/04/18 08:42:56;;;;;;;;;;;;;;;19.64;32.66;101197.03;5013663;28;20059;-75
2022/04/18 08:45:25;;;;;;;;;;;;;;;19.64;31.74;101197.03;5015064;28;19968;-80
2022/04/18 08:53:28;;;;;;;;;;;;;;;19.66;31.11;101187.03;5016642;28;19964;-77
2022/04/18 08:55:56;;;;;;;;;;;;;;;19.59;29.23;101183.09;5033626;28;19932;-76
2022/04/18 08:58:29;;;;;;;;;;;;;;;19.41;29.23;101189.97;5035168;28;19921;-76
2022/04/18 09:00:59;;;;;;;;;;;;;;;19.24;30.16;101194.00;5034013;28;19928;-76
2022/04/18 09:04:11;;;;;;;;;;;;;;;19.23;29.91;101177.03;5045614;28;20019;-76
2022/04/18 09:06:43;;;;;;;;;;;;;;;19.27;30.58;101172.28;5072866;28;19920;-77
2022/04/18 09:09:15;;;;;;;;;;;;;;;19.33;31.45;101170.94;5094598;28;19920;-78
2022/04/18 09:11:45;;;;;;;;;;;;;;;19.37;30.21;101165.22;5093278;28;19920;-78
2022/04/18 09:14:17;;;;;;;;;;;;;;;19.34;29.82;101159.22;5074279;28;19920;-74
2022/04/18 09:16:48;;;;;;;;;;;;;;;19.40;30.08;101164.09;5076144;28;19920;-74
2022/04/18 09:19:34;;;;;;;;;;;;;;;19.34;29.23;101160.09;5082757;28;19920;-77
2022/04/18 09:22:03;;;;;;;;;;;;;;;19.38;30.05;101166.91;5075164;28;19927;-79
2022/04/18 09:24:43;;;;;;;;;;;;;;;19.44;30.67;101157.50;5082962;28;19920;-75
2022/04/18 09:27:39;;;;;;;;;;;;;;;19.49;31.11;101158.84;5094631;28;19920;-74
2022/04/18 09:30:16;;;;;;;;;;;;;;;19.52;31.12;101146.97;5093962;28;19927;-74
2022/04/18 09:32:57;;;;;;;;;;;;;;;19.50;31.10;101148.94;5094362;28;19928;-74
2022/04/18 09:35:38;;;;;;;;;;;;;;;19.43;30.79;101142.38;5094787;28;19923;-74
2022/04/18 09:38:08;;;;;;;;;;;;;;;19.31;30.26;101144.22;5094536;28;19924;-77
2022/04/18 09:40:54;;;;;;;;;;;;;;;19.40;31.47;101139.94;5101863;28;19920;-77
2022/04/18 09:43:38;;;;;;;;;;;;;;;19.44;30.85;101133.31;5078016;28;20275;-77
2022/04/18 09:46:08;;;;;;;;;;;;;;;19.45;30.15;101130.53;5092594;28;19928;-77
2022/04/18 09:48:43;;;;;;;;;;;;;;;19.50;30.17;101127.47;5080483;28;19927;-78
2022/04/18 09:51:16;;;;;;;;;;;;;;;19.52;30.25;101115.59;5079150;28;19927;-78
2022/04/18 09:53:57;;;;;;;;;;;;;;;19.56;30.50;101115.34;5094098;28;20410;-78
2022/04/18 09:56:26;;;;;;;;;;;;;;;19.58;30.07;101113.41;5096001;28;20276;-78
2022/04/18 09:58:55;;;;;;;;;;;;;;;19.61;30.60;101113.16;5094214;28;19920;-78
2022/04/18 10:01:33;;;;;;;;;;;;;;;19.33;29.66;101117.25;5096007;28;19920;-78
2022/04/18 10:04:03;;;;;;;;;;;;;;;19.36;30.86;101117.00;5086016;28;19920;-79
2022/04/18 10:06:30;;;;;;;;;;;;;;;19.43;30.71;101105.63;5073677;28;19920;-79
2022/04/18 10:08:58;;;;;;;;;;;;;;;19.47;29.42;101101.72;5079014;28;19928;-78
2022/04/18 10:11:25;;;;;;;;;;;;;;;19.46;29.98;101099.16;5074282;28;19921;-79
2022/04/18 10:13:52;;;;;;;;;;;;;;;19.48;29.97;101089.97;5084380;28;19920;-79
2022/04/18 10:16:19;;;;;;;;;;;;;;;19.51;29.67;101097.78;5094037;28;20364;-77
2022/04/18 10:18:50;;;;;;;;;;;;;;;19.37;28.76;101090.03;5094011;28;19927;-77
2022/04/18 10:21:24;;;;;;;;;;;;;;;19.42;28.74;101084.28;5094784;28;19927;-77
2022/04/18 10:24:13;;;;;;;;;;;;;;;19.40;28.69;101095.13;5092559;28;20368;-78
2022/04/18 10:26:51;;;;;;;;;;;;;;;19.44;29.43;101085.00;5094505;28;19920;-77
2022/04/18 10:29:38;;;;;;;;;;;;;;;19.48;30.49;101081.06;5094415;28;19920;-77
2022/04/18 10:32:07;;;;;;;;;;;;;;;19.50;31.01;101071.94;5094362;28;19924;-77
2022/04/18 10:34:35;;;;;;;;;;;;;;;19.54;31.55;101072.53;5094292;28;20346;-78
2022/04/18 10:37:08;;;;;;;;;;;;;;;19.59;31.79;101072.16;5094143;28;19920;-77
2022/04/18 10:39:36;;;;;;;;;;;;;;;19.60;32.27;101072.00;5095628;28;19931;-79
2022/04/18 10:42:19;;;;;;;;;;;;;;;19.62;32.30;101062.03;5095824;28;19927;-80
2022/04/18 10:45:04;;;;;;;;;;;;;;;19.65;32.39;101061.78;5094734;28;19927;-78
2022/04/18 10:47:50;;;;;;;;;;;;;;;19.65;32.70;101059.09;5093801;28;19920;-78
2022/04/18 10:50:18;;;;;;;;;;;;;;;19.68;33.24;101049.91;5093056;28;20290;-78
2022/04/18 10:53:08;;;;;;;;;;;;;;;19.68;33.79;101056.13;5071274;28;19924;-77
2022/04/18 10:55:36;;;;;;;;;;;;;;;19.67;33.86;101046.38;5072397;28;19924;-76
2022/04/18 10:58:10;;;;;;;;;;;;;;;19.67;34.07;101043.69;5073850;28;19927;-77
2022/04/18 11:00:46;;;;;;;;;;;;;;;19.68;34.13;101042.69;5074558;28;20294;-77
2022/04/18 11:03:14;;;;;;;;;;;;;;;19.67;34.06;101038.31;5075238;28;19920;-78
2022/04/18 11:05:41;;;;;;;;;;;;;;;19.67;33.95;101038.31;5074238;28;19947;-77
2022/04/18 11:08:24;;;;;;;;;;;;;;;19.68;33.78;101036.47;5074169;28;19920;-77
2022/04/18 11:10:51;;;;;;;;;;;;;;;19.68;34.00;101025.75;5073780;28;19927;-77
2022/04/18 11:13:24;;;;;;;;;;;;;;;19.68;34.25;101031.97;5072867;28;20394;-77
2022/04/18 11:15:51;;;;;;;;;;;;;;;19.68;34.29;101026.59;5074245;28;20304;-78
2022/04/18 11:18:33;;;;;;;;;;;;;;;19.68;34.03;101029.28;5074199;28;20368;-77
2022/04/18 11:21:00;;;;;;;;;;;;;;;19.68;34.09;101017.69;5057085;28;19927;-78
2022/04/18 11:23:28;;;;;;;;;;;;;;;19.68;34.05;101012.31;5074582;28;20339;-77
2022/04/18 11:25:59;;;;;;;;;;;;;;;19.67;34.18;101008.78;5074353;28;20283;-77
2022/04/18 11:28:32;;;;;;;;;;;;;;;19.67;34.13;101006.09;5074415;28;19920;-77
2022/04/18 11:30:59;;;;;;;;;;;;;;;19.68;34.15;101013.16;5073611;28;19927;-77
2022/04/18 11:33:26;;;;;;;;;;;;;;;19.69;34.39;101005.97;5096833;28;19920;-78
2022/04/18 11:35:59;;;;;;;;;;;;;;;19.68;34.30;100998.88;5097678;28;19920;-78
2022/04/18 11:38:26;;;;;;;;;;;;;;;19.68;34.24;100997.03;5098358;28;19924;-77
2022/04/18 11:40:53;;;;;;;;;;;;;;;19.69;34.34;100993.41;5098229;28;19919;-78
2022/04/18 11:43:20;;;;;;;;;;;;;;;19.68;34.38;100988.97;5098002;28;19920;-78
2022/04/18 11:45:47;;;;;;;;;;;;;;;19.67;34.30;100992.66;5096758;28;19927;-78
2022/04/18 11:48:22;;;;;;;;;;;;;;;19.67;34.47;100987.28;5095993;28;19920;-77
2022/04/18 11:50:49;;;;;;;;;;;;;;;19.68;34.70;100983.63;5096927;28;19923;-77
2022/04/18 11:53:17;;;;;;;;;;;;;;;19.68;34.54;100975.56;5077893;28;19927;-77
2022/04/18 11:55:50;;;;;;;;;;;;;;;19.67;34.62;100973.88;5097320;28;19924;-78
2022/04/18 11:58:18;;;;;;;;;;;;;;;19.68;34.71;100972.88;5095657;28;20291;-77
2022/04/18 12:09:09;;;;;;;;;;;;;;;19.69;34.54;100954.94;5096936;28;19920;-78
2022/04/18 12:11:36;;;;;;;;;;;;;;;19.69;34.40;100949.56;5097743;28;19924;-77
2022/04/18 12:14:04;;;;;;;;;;;;;;;19.69;34.62;100950.44;5097927;28;19919;-78
2022/04/18 12:16:32;;;;;;;;;;;;;;;19.69;34.27;100944.22;5097290;28;19925;-78
2022/04/18 12:19:00;;;;;;;;;;;;;;;19.69;34.44;100945.06;5097648;28;19939;-77
2022/04/18 12:21:27;;;;;;;;;;;;;;;19.69;34.30;100947.75;5097480;28;20295;-77
2022/04/18 12:23:59;;;;;;;;;;;;;;;19.69;34.50;100934.31;5096260;28;19920;-78
2022/04/18 12:26:27;;;;;;;;;;;;;;;19.70;34.58;100937.84;5096062;28;19920;-78
2022/04/18 12:29:05;;;;;;;;;;;;;;;19.70;34.55;100933.31;5096452;28;19927;-78
2022/04/18 12:31:32;;;;;;;;;;;;;;;19.70;34.55;100930.63;5095481;28;19932;-77
2022/04/18 12:34:02;;;;;;;;;;;;;;;19.69;34.57;100926.25;5097313;28;19920;-78
2022/04/18 12:36:32;;;;;;;;;;;;;;;19.69;34.35;100918.19;5095224;28;19927;-78
2022/04/18 12:39:00;;;;;;;;;;;;;;;19.69;34.56;100910.13;5094678;28;19920;-77
2022/04/18 12:41:38;;;;;;;;;;;;;;;19.71;34.24;100908.16;5096745;28;19946;-76
2022/04/18 12:44:12;;;;;;;;;;;;;;;19.73;34.60;100910.72;5095981;28;20379;-77
2022/04/18 12:46:41;;;;;;;;;;;;;;;19.72;34.54;100899.09;5097379;28;20350;-77
2022/04/18 12:49:10;;;;;;;;;;;;;;;19.73;34.85;100897.28;5096311;28;20293;-77
2022/04/18 12:51:39;;;;;;;;;;;;;;;19.75;34.96;100892.63;5094831;28;19924;-76
2022/04/18 12:54:19;;;;;;;;;;;;;;;19.76;34.88;100887.09;5094547;28;19924;-77
2022/04/18 12:56:47;;;;;;;;;;;;;;;19.77;38.18;100879.94;5094546;28;19920;-78
2022/04/18 12:59:21;;;;;;;;;;;;;;;19.76;40.54;100884.41;5096435;28;20015;-77
2022/04/18 13:01:48;;;;;;;;;;;;;;;19.70;38.34;100871.53;5094285;28;20381;-76
2022/04/18 13:04:23;;;;;;;;;;;;;;;19.69;37.02;100863.63;5085100;28;20268;-73
2022/04/18 13:07:02;;;;;;;;;;;;;;;19.66;37.05;100867.41;5075605;28;20000;-75
2022/04/18 13:09:30;;;;;;;;;;;;;;;19.63;40.25;100858.78;5075186;28;19927;-75
2022/04/18 13:12:02;;;;;;;;;;;;;;;19.62;39.96;100862.44;5076275;28;19936;-75
2022/04/18 13:14:29;;;;;;;;;;;;;;;19.56;35.75;100861.09;5076086;28;19920;-76
2022/04/18 13:17:05;;;;;;;;;;;;;;;19.55;35.46;100859.41;5076292;28;20244;-75
2022/04/18 13:19:32;;;;;;;;;;;;;;;19.54;37.63;100855.03;5077450;28;19920;-75
2022/04/18 13:21:59;;;;;;;;;;;;;;;19.54;39.19;100855.03;5095455;28;20390;-75
2022/04/18 13:24:26;;;;;;;;;;;;;;;19.52;35.58;100841.72;5095593;28;19931;-75
2022/04/18 13:26:53;;;;;;;;;;;;;;;19.49;35.28;100847.38;5095477;28;19920;-75
2022/04/18 13:29:21;;;;;;;;;;;;;;;19.43;35.15;100845.19;5094950;28;20329;-74
2022/04/18 13:31:48;;;;;;;;;;;;;;;19.44;34.73;100840.69;5094851;28;20371;-74
2022/04/18 13:34:15;;;;;;;;;;;;;;;19.41;34.98;100831.06;5095117;28;20287;-75
2022/04/18 13:36:44;;;;;;;;;;;;;;;19.42;35.61;100827.41;5093492;28;19927;-74